sensor_id;sensor_type;location;lat;lon;timestamp;P1;durP1;ratioP1;P2;durP2;ratioP2
23561;SDS011;11959;49.418;8.728;2022-09-21T00:00:07;6.75;;;3.90;;
23561;SDS011;11959;49.418;8.728;2022-09-21T00:02:33;5.60;;;3.63;;
23561;SDS011;11959;49.418;8.728;2022-09-21T00:04:58;7.25;;;3.47;;
23561;SDS011;11959;49.418;8.728;2022-09-21T00:07:24;5.28;;;3.00;;
23561;SDS011;11959;49.418;8.728;2022-09-21T00:09:50;5.30;;;3.30;;
23561;SDS011;11959;49.418;8.728;2022-09-21T00:12:15;6.20;;;3.55;;
23561;SDS011;11959;49.418;8.728;2022-09-21T00:14:41;5.43;;;3.53;;
23561;SDS011;11959;49.418;8.728;2022-09-21T00:17:07;5.80;;;3.83;;
23561;SDS011;11959;49.418;8.728;2022-09-21T00:19:33;5.60;;;3.60;;
23561;SDS011;11959;49.418;8.728;2022-09-21T00:21:59;4.72;;;3.75;;
23561;SDS011;11959;49.418;8.728;2022-09-21T00:24:25;6.88;;;3.78;;
23561;SDS011;11959;49.418;8.728;2022-09-21T00:26:52;4.38;;;3.38;;
23561;SDS011;11959;49.418;8.728;2022-09-21T00:29:18;4.63;;;3.03;;
23561;SDS011;11959;49.418;8.728;2022-09-21T00:31:43;5.70;;;3.47;;
23561;SDS011;11959;49.418;8.728;2022-09-21T00:34:09;5.93;;;3.65;;
23561;SDS011;11959;49.418;8.728;2022-09-21T00:36:35;6.03;;;3.67;;
23561;SDS011;11959;49.418;8.728;2022-09-21T00:39:00;4.38;;;3.33;;
23561;SDS011;11959;49.418;8.728;2022-09-21T00:41:28;6.68;;;3.50;;
23561;SDS011;11959;49.418;8.728;2022-09-21T00:46:40;5.30;;;3.20;;
23561;SDS011;11959;49.418;8.728;2022-09-21T00:49:06;5.53;;;3.35;;
23561;SDS011;11959;49.418;8.728;2022-09-21T00:51:33;4.88;;;3.55;;
23561;SDS011;11959;49.418;8.728;2022-09-21T00:54:01;6.35;;;3.47;;
23561;SDS011;11959;49.418;8.728;2022-09-21T00:56:31;5.15;;;3.42;;
23561;SDS011;11959;49.418;8.728;2022-09-21T00:58:59;5.70;;;3.50;;
23561;SDS011;11959;49.418;8.728;2022-09-21T01:01:25;7.97;;;3.72;;
23561;SDS011;11959;49.418;8.728;2022-09-21T01:03:51;4.97;;;3.55;;
23561;SDS011;11959;49.418;8.728;2022-09-21T01:06:20;5.55;;;3.70;;
23561;SDS011;11959;49.418;8.728;2022-09-21T01:08:46;5.75;;;3.55;;
23561;SDS011;11959;49.418;8.728;2022-09-21T01:11:21;4.90;;;3.60;;
23561;SDS011;11959;49.418;8.728;2022-09-21T01:17:08;5.95;;;3.58;;
23561;SDS011;11959;49.418;8.728;2022-09-21T01:20:09;6.75;;;3.50;;
23561;SDS011;11959;49.418;8.728;2022-09-21T01:34:33;5.25;;;3.80;;
23561;SDS011;11959;49.418;8.728;2022-09-21T01:37:07;5.85;;;3.40;;
23561;SDS011;11959;49.418;8.728;2022-09-21T01:39:39;6.45;;;3.90;;
23561;SDS011;11959;49.418;8.728;2022-09-21T01:42:08;6.38;;;3.55;;
23561;SDS011;11959;49.418;8.728;2022-09-21T01:44:37;6.63;;;3.90;;
23561;SDS011;11959;49.418;8.728;2022-09-21T01:47:06;7.70;;;3.53;;
23561;SDS011;11959;49.418;8.728;2022-09-21T01:49:38;6.90;;;3.75;;
23561;SDS011;11959;49.418;8.728;2022-09-21T01:52:14;6.32;;;3.45;;
23561;SDS011;11959;49.418;8.728;2022-09-21T01:55:03;6.07;;;3.85;;
23561;SDS011;11959;49.418;8.728;2022-09-21T02:00:01;9.10;;;3.95;;
23561;SDS011;11959;49.418;8.728;2022-09-21T02:02:40;4.95;;;3.78;;
23561;SDS011;11959;49.418;8.728;2022-09-21T02:05:20;5.00;;;3.30;;
23561;SDS011;11959;49.418;8.728;2022-09-21T02:07:48;4.53;;;3.83;;
23561;SDS011;11959;49.418;8.728;2022-09-21T02:10:17;4.82;;;3.55;;
23561;SDS011;11959;49.418;8.728;2022-09-21T02:12:52;6.18;;;3.80;;
23561;SDS011;11959;49.418;8.728;2022-09-21T02:15:25;5.43;;;4.18;;
23561;SDS011;11959;49.418;8.728;2022-09-21T02:18:04;6.47;;;4.13;;
23561;SDS011;11959;49.418;8.728;2022-09-21T02:20:35;5.80;;;4.00;;
23561;SDS011;11959;49.418;8.728;2022-09-21T02:28:30;5.53;;;3.70;;
23561;SDS011;11959;49.418;8.728;2022-09-21T02:31:18;7.63;;;3.90;;
23561;SDS011;11959;49.418;8.728;2022-09-21T02:33:56;4.45;;;3.50;;
23561;SDS011;11959;49.418;8.728;2022-09-21T02:39:25;5.43;;;3.40;;
23561;SDS011;11959;49.418;8.728;2022-09-21T02:44:38;5.53;;;3.80;;
23561;SDS011;11959;49.418;8.728;2022-09-21T02:47:14;4.88;;;3.40;;
23561;SDS011;11959;49.418;8.728;2022-09-21T02:49:59;5.95;;;3.40;;
23561;SDS011;11959;49.418;8.728;2022-09-21T02:52:28;5.63;;;3.50;;
23561;SDS011;11959;49.418;8.728;2022-09-21T02:54:56;6.75;;;3.70;;
23561;SDS011;11959;49.418;8.728;2022-09-21T02:57:23;7.55;;;3.58;;
23561;SDS011;11959;49.418;8.728;2022-09-21T02:59:50;5.32;;;3.50;;
23561;SDS011;11959;49.418;8.728;2022-09-21T03:02:16;6.25;;;3.67;;
23561;SDS011;11959;49.418;8.728;2022-09-21T03:04:42;8.27;;;3.42;;
23561;SDS011;11959;49.418;8.728;2022-09-21T03:07:12;7.55;;;3.47;;
23561;SDS011;11959;49.418;8.728;2022-09-21T03:09:42;4.70;;;3.53;;
23561;SDS011;11959;49.418;8.728;2022-09-21T03:12:08;8.35;;;3.63;;
23561;SDS011;11959;49.418;8.728;2022-09-21T03:14:33;5.32;;;3.92;;
23561;SDS011;11959;49.418;8.728;2022-09-21T03:16:59;7.15;;;3.55;;
23561;SDS011;11959;49.418;8.728;2022-09-21T03:19:25;4.90;;;3.28;;
23561;SDS011;11959;49.418;8.728;2022-09-21T03:21:51;6.13;;;3.35;;
23561;SDS011;11959;49.418;8.728;2022-09-21T03:24:18;9.15;;;4.13;;
23561;SDS011;11959;49.418;8.728;2022-09-21T03:27:04;4.68;;;3.47;;
23561;SDS011;11959;49.418;8.728;2022-09-21T03:29:30;4.85;;;3.78;;
23561;SDS011;11959;49.418;8.728;2022-09-21T03:31:56;6.65;;;4.07;;
23561;SDS011;11959;49.418;8.728;2022-09-21T03:34:21;7.15;;;3.60;;
23561;SDS011;11959;49.418;8.728;2022-09-21T03:36:47;4.90;;;3.35;;
23561;SDS011;11959;49.418;8.728;2022-09-21T03:39:13;6.30;;;3.85;;
23561;SDS011;11959;49.418;8.728;2022-09-21T03:41:38;7.28;;;3.60;;
23561;SDS011;11959;49.418;8.728;2022-09-21T03:44:04;4.35;;;3.70;;
23561;SDS011;11959;49.418;8.728;2022-09-21T03:46:30;5.47;;;4.03;;
23561;SDS011;11959;49.418;8.728;2022-09-21T03:48:59;5.03;;;3.42;;
23561;SDS011;11959;49.418;8.728;2022-09-21T03:51:25;5.15;;;3.70;;
23561;SDS011;11959;49.418;8.728;2022-09-21T03:53:50;7.93;;;4.05;;
23561;SDS011;11959;49.418;8.728;2022-09-21T03:56:16;4.90;;;3.63;;
23561;SDS011;11959;49.418;8.728;2022-09-21T03:58:42;5.10;;;3.90;;
23561;SDS011;11959;49.418;8.728;2022-09-21T04:01:08;4.65;;;3.95;;
23561;SDS011;11959;49.418;8.728;2022-09-21T04:03:34;6.80;;;4.28;;
23561;SDS011;11959;49.418;8.728;2022-09-21T04:05:59;5.15;;;4.30;;
23561;SDS011;11959;49.418;8.728;2022-09-21T04:08:32;5.95;;;3.97;;
23561;SDS011;11959;49.418;8.728;2022-09-21T04:10:57;5.18;;;4.05;;
23561;SDS011;11959;49.418;8.728;2022-09-21T04:13:24;8.60;;;4.30;;
23561;SDS011;11959;49.418;8.728;2022-09-21T04:15:49;7.47;;;4.72;;
23561;SDS011;11959;49.418;8.728;2022-09-21T04:18:15;5.80;;;3.90;;
23561;SDS011;11959;49.418;8.728;2022-09-21T04:20:40;5.68;;;4.22;;
23561;SDS011;11959;49.418;8.728;2022-09-21T04:23:06;6.30;;;4.47;;
23561;SDS011;11959;49.418;8.728;2022-09-21T04:25:32;8.95;;;4.70;;
23561;SDS011;11959;49.418;8.728;2022-09-21T04:27:58;8.30;;;4.20;;
23561;SDS011;11959;49.418;8.728;2022-09-21T04:30:23;5.78;;;4.80;;
23561;SDS011;11959;49.418;8.728;2022-09-21T04:32:49;6.47;;;4.93;;
23561;SDS011;11959;49.418;8.728;2022-09-21T04:35:15;6.03;;;4.68;;
23561;SDS011;11959;49.418;8.728;2022-09-21T04:37:40;7.28;;;5.50;;
23561;SDS011;11959;49.418;8.728;2022-09-21T04:40:06;7.60;;;5.05;;
23561;SDS011;11959;49.418;8.728;2022-09-21T04:42:33;6.60;;;5.00;;
23561;SDS011;11959;49.418;8.728;2022-09-21T04:44:58;6.07;;;4.65;;
23561;SDS011;11959;49.418;8.728;2022-09-21T04:47:24;7.93;;;4.93;;
23561;SDS011;11959;49.418;8.728;2022-09-21T04:49:50;8.20;;;5.32;;
23561;SDS011;11959;49.418;8.728;2022-09-21T04:52:19;8.05;;;6.20;;
23561;SDS011;11959;49.418;8.728;2022-09-21T04:54:45;6.95;;;4.97;;
23561;SDS011;11959;49.418;8.728;2022-09-21T04:57:11;11.15;;;5.60;;
23561;SDS011;11959;49.418;8.728;2022-09-21T04:59:37;8.52;;;5.72;;
23561;SDS011;11959;49.418;8.728;2022-09-21T05:02:03;6.55;;;5.40;;
23561;SDS011;11959;49.418;8.728;2022-09-21T05:04:28;7.97;;;5.32;;
23561;SDS011;11959;49.418;8.728;2022-09-21T05:06:54;6.72;;;5.15;;
23561;SDS011;11959;49.418;8.728;2022-09-21T05:09:21;9.02;;;5.88;;
23561;SDS011;11959;49.418;8.728;2022-09-21T05:12:05;7.88;;;5.35;;
23561;SDS011;11959;49.418;8.728;2022-09-21T05:14:31;7.40;;;5.38;;
23561;SDS011;11959;49.418;8.728;2022-09-21T05:16:56;7.00;;;4.97;;
23561;SDS011;11959;49.418;8.728;2022-09-21T05:19:22;5.40;;;4.50;;
23561;SDS011;11959;49.418;8.728;2022-09-21T05:21:47;5.75;;;5.00;;
23561;SDS011;11959;49.418;8.728;2022-09-21T05:24:13;6.30;;;4.35;;
23561;SDS011;11959;49.418;8.728;2022-09-21T05:26:39;6.25;;;4.70;;
23561;SDS011;11959;49.418;8.728;2022-09-21T05:29:04;9.05;;;5.07;;
23561;SDS011;11959;49.418;8.728;2022-09-21T05:31:37;6.30;;;4.53;;
23561;SDS011;11959;49.418;8.728;2022-09-21T05:39:09;7.63;;;4.50;;
23561;SDS011;11959;49.418;8.728;2022-09-21T05:41:36;7.57;;;4.60;;
23561;SDS011;11959;49.418;8.728;2022-09-21T05:44:02;5.97;;;4.82;;
23561;SDS011;11959;49.418;8.728;2022-09-21T05:46:49;5.65;;;4.85;;
23561;SDS011;11959;49.418;8.728;2022-09-21T05:52:40;5.20;;;4.70;;
23561;SDS011;11959;49.418;8.728;2022-09-21T05:55:39;5.70;;;4.50;;
23561;SDS011;11959;49.418;8.728;2022-09-21T05:58:36;6.38;;;4.50;;
23561;SDS011;11959;49.418;8.728;2022-09-21T06:03:51;7.97;;;5.30;;
23561;SDS011;11959;49.418;8.728;2022-09-21T06:06:18;6.43;;;5.00;;
23561;SDS011;11959;49.418;8.728;2022-09-21T06:08:44;5.85;;;4.90;;
23561;SDS011;11959;49.418;8.728;2022-09-21T06:11:10;8.43;;;5.07;;
23561;SDS011;11959;49.418;8.728;2022-09-21T06:13:37;8.02;;;5.32;;
23561;SDS011;11959;49.418;8.728;2022-09-21T06:16:03;6.30;;;5.15;;
23561;SDS011;11959;49.418;8.728;2022-09-21T06:18:29;7.03;;;5.10;;
23561;SDS011;11959;49.418;8.728;2022-09-21T06:20:55;9.43;;;5.53;;
23561;SDS011;11959;49.418;8.728;2022-09-21T06:23:20;7.25;;;4.95;;
23561;SDS011;11959;49.418;8.728;2022-09-21T06:25:50;6.50;;;5.40;;
23561;SDS011;11959;49.418;8.728;2022-09-21T06:28:16;8.75;;;5.68;;
23561;SDS011;11959;49.418;8.728;2022-09-21T06:30:42;6.82;;;4.97;;
23561;SDS011;11959;49.418;8.728;2022-09-21T06:33:09;8.45;;;5.30;;
23561;SDS011;11959;49.418;8.728;2022-09-21T06:35:35;6.32;;;5.05;;
23561;SDS011;11959;49.418;8.728;2022-09-21T06:38:02;7.15;;;5.05;;
23561;SDS011;11959;49.418;8.728;2022-09-21T06:40:30;6.40;;;5.47;;
23561;SDS011;11959;49.418;8.728;2022-09-21T06:42:57;6.32;;;5.18;;
23561;SDS011;11959;49.418;8.728;2022-09-21T06:45:24;7.63;;;5.43;;
23561;SDS011;11959;49.418;8.728;2022-09-21T06:47:50;7.80;;;6.22;;
23561;SDS011;11959;49.418;8.728;2022-09-21T06:50:16;6.82;;;5.20;;
23561;SDS011;11959;49.418;8.728;2022-09-21T06:52:42;7.57;;;5.40;;
23561;SDS011;11959;49.418;8.728;2022-09-21T06:55:08;8.68;;;5.70;;
23561;SDS011;11959;49.418;8.728;2022-09-21T06:57:36;7.03;;;5.63;;
23561;SDS011;11959;49.418;8.728;2022-09-21T07:00:06;6.22;;;5.55;;
23561;SDS011;11959;49.418;8.728;2022-09-21T07:02:33;8.30;;;5.97;;
23561;SDS011;11959;49.418;8.728;2022-09-21T07:04:59;7.78;;;5.40;;
23561;SDS011;11959;49.418;8.728;2022-09-21T07:07:25;9.13;;;5.35;;
23561;SDS011;11959;49.418;8.728;2022-09-21T07:09:54;6.63;;;5.18;;
23561;SDS011;11959;49.418;8.728;2022-09-21T07:12:20;7.05;;;5.60;;
23561;SDS011;11959;49.418;8.728;2022-09-21T07:14:46;8.00;;;5.15;;
23561;SDS011;11959;49.418;8.728;2022-09-21T07:17:11;6.43;;;4.93;;
23561;SDS011;11959;49.418;8.728;2022-09-21T07:19:38;8.35;;;5.65;;
23561;SDS011;11959;49.418;8.728;2022-09-21T07:22:04;7.03;;;4.90;;
23561;SDS011;11959;49.418;8.728;2022-09-21T07:24:30;7.50;;;5.13;;
23561;SDS011;11959;49.418;8.728;2022-09-21T07:26:56;8.73;;;4.97;;
23561;SDS011;11959;49.418;8.728;2022-09-21T07:29:22;6.63;;;5.40;;
23561;SDS011;11959;49.418;8.728;2022-09-21T07:31:48;4.97;;;4.28;;
23561;SDS011;11959;49.418;8.728;2022-09-21T07:34:14;7.97;;;4.32;;
23561;SDS011;11959;49.418;8.728;2022-09-21T07:36:39;6.40;;;4.40;;
23561;SDS011;11959;49.418;8.728;2022-09-21T07:39:07;6.75;;;4.82;;
23561;SDS011;11959;49.418;8.728;2022-09-21T07:41:33;6.40;;;4.47;;
23561;SDS011;11959;49.418;8.728;2022-09-21T07:43:59;7.90;;;3.95;;
23561;SDS011;11959;49.418;8.728;2022-09-21T07:46:25;4.90;;;4.00;;
23561;SDS011;11959;49.418;8.728;2022-09-21T07:48:55;5.68;;;3.80;;
23561;SDS011;11959;49.418;8.728;2022-09-21T07:51:21;7.03;;;4.57;;
23561;SDS011;11959;49.418;8.728;2022-09-21T07:53:52;6.93;;;3.97;;
23561;SDS011;11959;49.418;8.728;2022-09-21T07:56:20;5.10;;;3.75;;
23561;SDS011;11959;49.418;8.728;2022-09-21T07:58:46;6.97;;;4.32;;
23561;SDS011;11959;49.418;8.728;2022-09-21T08:01:30;5.85;;;3.85;;
23561;SDS011;11959;49.418;8.728;2022-09-21T08:04:04;7.43;;;3.95;;
23561;SDS011;11959;49.418;8.728;2022-09-21T08:06:32;5.00;;;3.70;;
23561;SDS011;11959;49.418;8.728;2022-09-21T08:08:59;5.80;;;3.35;;
23561;SDS011;11959;49.418;8.728;2022-09-21T08:11:26;6.50;;;3.63;;
23561;SDS011;11959;49.418;8.728;2022-09-21T08:13:54;5.15;;;3.70;;
23561;SDS011;11959;49.418;8.728;2022-09-21T08:16:22;5.15;;;3.42;;
23561;SDS011;11959;49.418;8.728;2022-09-21T08:18:47;7.55;;;3.30;;
23561;SDS011;11959;49.418;8.728;2022-09-21T08:21:15;6.20;;;3.85;;
23561;SDS011;11959;49.418;8.728;2022-09-21T08:23:41;4.55;;;3.50;;
23561;SDS011;11959;49.418;8.728;2022-09-21T08:26:09;7.13;;;4.18;;
23561;SDS011;11959;49.418;8.728;2022-09-21T08:28:40;7.38;;;4.88;;
23561;SDS011;11959;49.418;8.728;2022-09-21T08:31:07;9.45;;;6.10;;
23561;SDS011;11959;49.418;8.728;2022-09-21T08:33:34;9.38;;;6.10;;
23561;SDS011;11959;49.418;8.728;2022-09-21T08:36:00;7.03;;;4.85;;
23561;SDS011;11959;49.418;8.728;2022-09-21T08:38:26;7.85;;;4.53;;
23561;SDS011;11959;49.418;8.728;2022-09-21T08:40:56;7.97;;;4.43;;
23561;SDS011;11959;49.418;8.728;2022-09-21T08:45:56;4.80;;;3.75;;
23561;SDS011;11959;49.418;8.728;2022-09-21T08:48:24;5.32;;;3.85;;
23561;SDS011;11959;49.418;8.728;2022-09-21T08:50:56;5.15;;;3.10;;
23561;SDS011;11959;49.418;8.728;2022-09-21T08:53:39;4.88;;;3.10;;
23561;SDS011;11959;49.418;8.728;2022-09-21T08:56:09;3.88;;;2.30;;
23561;SDS011;11959;49.418;8.728;2022-09-21T08:58:37;3.35;;;2.00;;
23561;SDS011;11959;49.418;8.728;2022-09-21T09:04:57;3.35;;;1.83;;
23561;SDS011;11959;49.418;8.728;2022-09-21T09:20:44;2.42;;;1.10;;
23561;SDS011;11959;49.418;8.728;2022-09-21T09:23:20;2.53;;;0.95;;
23561;SDS011;11959;49.418;8.728;2022-09-21T09:26:14;1.77;;;0.88;;
23561;SDS011;11959;49.418;8.728;2022-09-21T09:29:01;2.45;;;0.90;;
23561;SDS011;11959;49.418;8.728;2022-09-21T09:31:36;2.05;;;1.13;;
23561;SDS011;11959;49.418;8.728;2022-09-21T09:36:45;2.53;;;1.08;;
23561;SDS011;11959;49.418;8.728;2022-09-21T09:39:14;1.52;;;1.00;;
23561;SDS011;11959;49.418;8.728;2022-09-21T09:52:26;1.23;;;0.70;;
23561;SDS011;11959;49.418;8.728;2022-09-21T09:54:52;1.65;;;0.75;;
23561;SDS011;11959;49.418;8.728;2022-09-21T09:57:19;2.85;;;0.80;;
23561;SDS011;11959;49.418;8.728;2022-09-21T09:59:53;1.20;;;0.80;;
23561;SDS011;11959;49.418;8.728;2022-09-21T10:02:23;2.25;;;0.80;;
23561;SDS011;11959;49.418;8.728;2022-09-21T10:07:43;1.98;;;0.77;;
23561;SDS011;11959;49.418;8.728;2022-09-21T10:13:05;2.50;;;0.70;;
23561;SDS011;11959;49.418;8.728;2022-09-21T10:15:37;2.00;;;0.70;;
23561;SDS011;11959;49.418;8.728;2022-09-21T10:18:16;3.75;;;1.40;;
23561;SDS011;11959;49.418;8.728;2022-09-21T10:21:17;2.00;;;0.70;;
23561;SDS011;11959;49.418;8.728;2022-09-21T10:23:51;0.77;;;0.68;;
23561;SDS011;11959;49.418;8.728;2022-09-21T10:26:33;2.45;;;1.08;;
23561;SDS011;11959;49.418;8.728;2022-09-21T10:34:24;2.08;;;0.70;;
23561;SDS011;11959;49.418;8.728;2022-09-21T10:36:52;1.08;;;0.70;;
23561;SDS011;11959;49.418;8.728;2022-09-21T10:41:53;2.38;;;1.08;;
23561;SDS011;11959;49.418;8.728;2022-09-21T10:44:32;2.20;;;0.90;;
23561;SDS011;11959;49.418;8.728;2022-09-21T10:47:00;2.72;;;1.10;;
23561;SDS011;11959;49.418;8.728;2022-09-21T10:49:41;1.52;;;1.02;;
23561;SDS011;11959;49.418;8.728;2022-09-21T10:52:14;4.25;;;1.20;;
23561;SDS011;11959;49.418;8.728;2022-09-21T10:54:44;3.78;;;1.45;;
23561;SDS011;11959;49.418;8.728;2022-09-21T10:57:16;2.30;;;1.10;;
23561;SDS011;11959;49.418;8.728;2022-09-21T10:59:43;2.83;;;1.23;;
23561;SDS011;11959;49.418;8.728;2022-09-21T11:05:07;0.73;;;0.60;;
23561;SDS011;11959;49.418;8.728;2022-09-21T11:07:45;1.90;;;0.90;;
23561;SDS011;11959;49.418;8.728;2022-09-21T11:11:18;2.47;;;0.70;;
23561;SDS011;11959;49.418;8.728;2022-09-21T11:13:37;0.50;;;0.50;;
23561;SDS011;11959;49.418;8.728;2022-09-21T11:16:13;0.60;;;0.50;;
23561;SDS011;11959;49.418;8.728;2022-09-21T11:18:47;1.75;;;0.47;;
23561;SDS011;11959;49.418;8.728;2022-09-21T11:21:29;3.72;;;1.98;;
23561;SDS011;11959;49.418;8.728;2022-09-21T11:27:01;1.77;;;0.57;;
23561;SDS011;11959;49.418;8.728;2022-09-21T11:29:34;0.85;;;0.50;;
23561;SDS011;11959;49.418;8.728;2022-09-21T11:46:06;0.88;;;0.47;;
23561;SDS011;11959;49.418;8.728;2022-09-21T11:56:49;1.00;;;0.45;;
23561;SDS011;11959;49.418;8.728;2022-09-21T12:04:46;1.52;;;0.55;;
23561;SDS011;11959;49.418;8.728;2022-09-21T12:18:40;1.13;;;0.68;;
23561;SDS011;11959;49.418;8.728;2022-09-21T12:23:42;1.90;;;0.40;;
23561;SDS011;11959;49.418;8.728;2022-09-21T12:26:21;0.65;;;0.40;;
23561;SDS011;11959;49.418;8.728;2022-09-21T12:28:53;1.35;;;0.40;;
23561;SDS011;11959;49.418;8.728;2022-09-21T12:32:12;1.75;;;0.40;;
23561;SDS011;11959;49.418;8.728;2022-09-21T12:34:17;0.65;;;0.40;;
23561;SDS011;11959;49.418;8.728;2022-09-21T12:39:58;0.90;;;0.50;;
23561;SDS011;11959;49.418;8.728;2022-09-21T12:45:37;1.00;;;0.45;;
23561;SDS011;11959;49.418;8.728;2022-09-21T12:50:48;1.00;;;0.50;;
23561;SDS011;11959;49.418;8.728;2022-09-21T12:53:25;0.70;;;0.47;;
23561;SDS011;11959;49.418;8.728;2022-09-21T13:09:40;0.55;;;0.22;;
23561;SDS011;11959;49.418;8.728;2022-09-21T13:12:09;2.45;;;0.47;;
23561;SDS011;11959;49.418;8.728;2022-09-21T13:14:49;1.67;;;0.40;;
23561;SDS011;11959;49.418;8.728;2022-09-21T13:17:23;1.45;;;0.50;;
23561;SDS011;11959;49.418;8.728;2022-09-21T13:19:55;0.80;;;0.40;;
23561;SDS011;11959;49.418;8.728;2022-09-21T13:22:31;1.50;;;0.40;;
23561;SDS011;11959;49.418;8.728;2022-09-21T13:25:00;1.33;;;0.32;;
23561;SDS011;11959;49.418;8.728;2022-09-21T13:51:35;1.77;;;0.40;;
23561;SDS011;11959;49.418;8.728;2022-09-21T13:54:14;0.70;;;0.35;;
23561;SDS011;11959;49.418;8.728;2022-09-21T13:56:40;0.40;;;0.30;;
23561;SDS011;11959;49.418;8.728;2022-09-21T13:59:15;0.50;;;0.20;;
23561;SDS011;11959;49.418;8.728;2022-09-21T14:01:46;0.77;;;0.30;;
23561;SDS011;11959;49.418;8.728;2022-09-21T14:04:17;0.52;;;0.40;;
23561;SDS011;11959;49.418;8.728;2022-09-21T14:06:48;0.80;;;0.40;;
23561;SDS011;11959;49.418;8.728;2022-09-21T14:09:26;0.70;;;0.30;;
23561;SDS011;11959;49.418;8.728;2022-09-21T14:12:02;1.20;;;0.40;;
23561;SDS011;11959;49.418;8.728;2022-09-21T14:14:34;0.70;;;0.40;;
23561;SDS011;11959;49.418;8.728;2022-09-21T14:17:32;0.98;;;0.40;;
23561;SDS011;11959;49.418;8.728;2022-09-21T14:20:01;1.40;;;0.70;;
23561;SDS011;11959;49.418;8.728;2022-09-21T14:22:33;0.57;;;0.40;;
23561;SDS011;11959;49.418;8.728;2022-09-21T14:25:19;1.15;;;0.47;;
23561;SDS011;11959;49.418;8.728;2022-09-21T14:27:49;0.50;;;0.20;;
23561;SDS011;11959;49.418;8.728;2022-09-21T14:30:17;2.47;;;0.30;;
23561;SDS011;11959;49.418;8.728;2022-09-21T14:35:25;1.38;;;0.40;;
23561;SDS011;11959;49.418;8.728;2022-09-21T14:37:57;0.63;;;0.32;;
23561;SDS011;11959;49.418;8.728;2022-09-21T14:40:35;1.50;;;0.40;;
23561;SDS011;11959;49.418;8.728;2022-09-21T14:43:07;1.50;;;0.80;;
23561;SDS011;11959;49.418;8.728;2022-09-21T15:00:19;0.32;;;0.30;;
23561;SDS011;11959;49.418;8.728;2022-09-21T15:02:49;1.00;;;0.32;;
23561;SDS011;11959;49.418;8.728;2022-09-21T15:05:30;0.60;;;0.30;;
23561;SDS011;11959;49.418;8.728;2022-09-21T15:11:16;1.95;;;0.40;;
23561;SDS011;11959;49.418;8.728;2022-09-21T15:16:44;0.85;;;0.50;;
23561;SDS011;11959;49.418;8.728;2022-09-21T15:24:49;0.52;;;0.30;;
23561;SDS011;11959;49.418;8.728;2022-09-21T15:27:15;0.43;;;0.40;;
23561;SDS011;11959;49.418;8.728;2022-09-21T15:29:43;0.65;;;0.30;;
23561;SDS011;11959;49.418;8.728;2022-09-21T15:34:56;1.67;;;0.50;;
23561;SDS011;11959;49.418;8.728;2022-09-21T15:37:25;0.43;;;0.32;;
23561;SDS011;11959;49.418;8.728;2022-09-21T15:39:58;0.60;;;0.40;;
23561;SDS011;11959;49.418;8.728;2022-09-21T15:42:26;0.90;;;0.50;;
23561;SDS011;11959;49.418;8.728;2022-09-21T15:44:58;1.27;;;0.38;;
23561;SDS011;11959;49.418;8.728;2022-09-21T15:47:34;1.27;;;0.50;;
23561;SDS011;11959;49.418;8.728;2022-09-21T15:50:01;1.73;;;0.47;;
23561;SDS011;11959;49.418;8.728;2022-09-21T15:52:35;0.43;;;0.30;;
23561;SDS011;11959;49.418;8.728;2022-09-21T15:55:09;0.60;;;0.40;;
23561;SDS011;11959;49.418;8.728;2022-09-21T15:57:43;1.67;;;0.50;;
23561;SDS011;11959;49.418;8.728;2022-09-21T16:02:41;1.10;;;0.38;;
23561;SDS011;11959;49.418;8.728;2022-09-21T16:05:14;1.15;;;0.40;;
23561;SDS011;11959;49.418;8.728;2022-09-21T16:07:44;1.08;;;0.40;;
23561;SDS011;11959;49.418;8.728;2022-09-21T16:13:08;1.80;;;0.40;;
23561;SDS011;11959;49.418;8.728;2022-09-21T16:16:07;1.13;;;0.30;;
23561;SDS011;11959;49.418;8.728;2022-09-21T16:23:44;1.02;;;0.40;;
23561;SDS011;11959;49.418;8.728;2022-09-21T16:26:19;0.98;;;0.30;;
23561;SDS011;11959;49.418;8.728;2022-09-21T16:29:18;0.43;;;0.40;;
23561;SDS011;11959;49.418;8.728;2022-09-21T16:31:47;2.63;;;0.50;;
23561;SDS011;11959;49.418;8.728;2022-09-21T16:34:30;1.00;;;0.30;;
23561;SDS011;11959;49.418;8.728;2022-09-21T16:36:59;1.52;;;0.50;;
23561;SDS011;11959;49.418;8.728;2022-09-21T16:39:26;2.28;;;0.55;;
23561;SDS011;11959;49.418;8.728;2022-09-21T16:41:55;0.65;;;0.50;;
23561;SDS011;11959;49.418;8.728;2022-09-21T16:44:25;0.82;;;0.43;;
23561;SDS011;11959;49.418;8.728;2022-09-21T16:47:01;2.13;;;0.70;;
23561;SDS011;11959;49.418;8.728;2022-09-21T16:49:31;1.63;;;0.70;;
23561;SDS011;11959;49.418;8.728;2022-09-21T16:51:58;1.95;;;0.77;;
23561;SDS011;11959;49.418;8.728;2022-09-21T16:54:25;1.65;;;0.95;;
23561;SDS011;11959;49.418;8.728;2022-09-21T16:56:55;2.17;;;1.05;;
23561;SDS011;11959;49.418;8.728;2022-09-21T16:59:23;1.88;;;1.02;;
23561;SDS011;11959;49.418;8.728;2022-09-21T17:01:51;1.85;;;1.35;;
23561;SDS011;11959;49.418;8.728;2022-09-21T17:04:18;3.10;;;1.70;;
23561;SDS011;11959;49.418;8.728;2022-09-21T17:06:46;3.78;;;1.73;;
23561;SDS011;11959;49.418;8.728;2022-09-21T17:09:17;4.28;;;1.23;;
23561;SDS011;11959;49.418;8.728;2022-09-21T17:11:44;1.95;;;0.45;;
23561;SDS011;11959;49.418;8.728;2022-09-21T17:14:11;2.05;;;0.45;;
23561;SDS011;11959;49.418;8.728;2022-09-21T17:16:40;1.75;;;0.65;;
23561;SDS011;11959;49.418;8.728;2022-09-21T17:19:08;2.60;;;0.50;;
23561;SDS011;11959;49.418;8.728;2022-09-21T17:21:34;1.33;;;0.73;;
23561;SDS011;11959;49.418;8.728;2022-09-21T17:23:59;3.33;;;1.00;;
23561;SDS011;11959;49.418;8.728;2022-09-21T17:26:25;3.90;;;1.17;;
23561;SDS011;11959;49.418;8.728;2022-09-21T17:28:52;1.75;;;0.52;;
23561;SDS011;11959;49.418;8.728;2022-09-21T17:31:17;1.52;;;0.47;;
23561;SDS011;11959;49.418;8.728;2022-09-21T17:33:47;1.58;;;0.52;;
23561;SDS011;11959;49.418;8.728;2022-09-21T17:36:14;0.75;;;0.50;;
23561;SDS011;11959;49.418;8.728;2022-09-21T17:38:41;1.13;;;0.60;;
23561;SDS011;11959;49.418;8.728;2022-09-21T17:41:27;1.80;;;0.40;;
23561;SDS011;11959;49.418;8.728;2022-09-21T17:44:06;1.73;;;0.70;;
23561;SDS011;11959;49.418;8.728;2022-09-21T17:46:55;1.77;;;0.60;;
23561;SDS011;11959;49.418;8.728;2022-09-21T17:49:24;1.88;;;0.90;;
23561;SDS011;11959;49.418;8.728;2022-09-21T17:51:50;1.27;;;0.80;;
23561;SDS011;11959;49.418;8.728;2022-09-21T17:54:34;1.23;;;0.85;;
23561;SDS011;11959;49.418;8.728;2022-09-21T17:59:49;1.98;;;0.95;;
23561;SDS011;11959;49.418;8.728;2022-09-21T18:02:21;1.17;;;0.70;;
23561;SDS011;11959;49.418;8.728;2022-09-21T18:04:50;2.08;;;1.05;;
23561;SDS011;11959;49.418;8.728;2022-09-21T18:07:37;2.10;;;1.48;;
23561;SDS011;11959;49.418;8.728;2022-09-21T18:10:03;4.88;;;2.78;;
23561;SDS011;11959;49.418;8.728;2022-09-21T18:18:17;2.78;;;1.40;;
23561;SDS011;11959;49.418;8.728;2022-09-21T18:20:56;2.75;;;1.42;;
23561;SDS011;11959;49.418;8.728;2022-09-21T18:26:20;2.58;;;1.35;;
23561;SDS011;11959;49.418;8.728;2022-09-21T18:28:47;1.20;;;0.98;;
23561;SDS011;11959;49.418;8.728;2022-09-21T18:37:08;3.28;;;2.22;;
23561;SDS011;11959;49.418;8.728;2022-09-21T18:39:44;2.47;;;2.10;;
23561;SDS011;11959;49.418;8.728;2022-09-21T18:45:02;3.00;;;2.00;;
23561;SDS011;11959;49.418;8.728;2022-09-21T18:55:36;3.55;;;2.17;;
23561;SDS011;11959;49.418;8.728;2022-09-21T18:58:02;3.15;;;1.50;;
23561;SDS011;11959;49.418;8.728;2022-09-21T19:00:28;2.60;;;1.40;;
23561;SDS011;11959;49.418;8.728;2022-09-21T19:03:00;2.90;;;1.23;;
23561;SDS011;11959;49.418;8.728;2022-09-21T19:05:28;3.22;;;0.82;;
23561;SDS011;11959;49.418;8.728;2022-09-21T19:11:20;2.53;;;0.65;;
23561;SDS011;11959;49.418;8.728;2022-09-21T19:19:37;1.00;;;0.80;;
23561;SDS011;11959;49.418;8.728;2022-09-21T19:22:26;1.52;;;0.80;;
23561;SDS011;11959;49.418;8.728;2022-09-21T19:27:59;1.10;;;0.73;;
23561;SDS011;11959;49.418;8.728;2022-09-21T19:30:45;0.95;;;0.70;;
23561;SDS011;11959;49.418;8.728;2022-09-21T19:33:28;2.28;;;0.88;;